createdAt,value
2019-03-27T00:00:13.166Z,18.53
2019-03-27T00:02:40.392Z,18.93
2019-03-27T00:05:08.071Z,18.10
2019-03-27T00:07:35.298Z,15.10
2019-03-27T00:10:02.903Z,16.13
2019-03-27T00:12:30.105Z,19.17
2019-03-27T00:14:57.340Z,15.00
2019-03-27T00:17:24.548Z,18.70
2019-03-27T00:19:52.090Z,18.93
2019-03-27T00:22:19.326Z,21.77
2019-03-27T00:24:46.726Z,21.27
2019-03-27T00:27:13.933Z,17.90
2019-03-27T00:29:41.516Z,28.47
2019-03-27T00:32:08.830Z,25.70
2019-03-27T00:34:36.037Z,27.87
2019-03-27T00:37:03.569Z,22.90
2019-03-27T00:39:30.809Z,24.93
2019-03-27T00:41:58.036Z,26.73
2019-03-27T00:44:25.250Z,26.13
2019-03-27T00:46:52.482Z,22.67
2019-03-27T00:49:19.693Z,30.33
2019-03-27T00:51:47.283Z,25.13
2019-03-27T00:54:14.494Z,27.00
2019-03-27T00:56:41.731Z,28.13
2019-03-27T00:59:09.238Z,22.60
2019-03-27T01:01:36.466Z,24.57
2019-03-27T01:04:04.064Z,31.37
2019-03-27T01:06:31.306Z,28.37
2019-03-27T01:08:58.862Z,31.93
2019-03-27T01:11:26.124Z,25.67
2019-03-27T01:13:53.671Z,27.07
2019-03-27T01:16:20.890Z,25.47
2019-03-27T01:18:48.113Z,26.93
2019-03-27T01:21:15.335Z,25.93
2019-03-27T01:23:42.545Z,24.77
2019-03-27T01:26:10.027Z,26.93
2019-03-27T01:28:37.233Z,27.17
2019-03-27T01:31:05.441Z,29.40
2019-03-27T01:33:32.654Z,31.13
2019-03-27T01:36:00.162Z,25.97
2019-03-27T01:38:28.925Z,26.07
2019-03-27T01:40:56.394Z,26.77
2019-03-27T01:43:23.599Z,30.77
2019-03-27T01:45:53.331Z,33.53
2019-03-27T01:48:20.107Z,24.23
2019-03-27T01:50:48.195Z,26.30
2019-03-27T01:53:15.409Z,32.67
2019-03-27T01:55:42.986Z,22.23
2019-03-27T01:58:10.227Z,26.47
2019-03-27T02:00:37.890Z,22.53
2019-03-27T02:03:05.455Z,32.70
2019-03-27T02:05:33.123Z,25.70
2019-03-27T02:08:00.681Z,29.77
2019-03-27T02:10:27.928Z,25.67
2019-03-27T02:12:55.487Z,22.87
2019-03-27T02:15:22.693Z,24.73
2019-03-27T02:17:49.930Z,24.07
2019-03-27T02:20:17.213Z,26.97
2019-03-27T02:22:44.448Z,20.47
2019-03-27T02:25:11.658Z,25.30
2019-03-27T02:27:38.901Z,29.13
2019-03-27T02:30:07.297Z,21.90
2019-03-27T02:32:34.513Z,24.13
2019-03-27T02:35:01.755Z,24.90
2019-03-27T02:37:29.356Z,27.57
2019-03-27T02:39:56.649Z,25.20
2019-03-27T02:42:23.884Z,22.80
2019-03-27T02:44:51.102Z,20.93
2019-03-27T02:47:18.643Z,23.90
2019-03-27T02:49:45.871Z,24.90
2019-03-27T02:52:13.350Z,27.97
2019-03-27T02:54:40.909Z,17.47
2019-03-27T02:57:08.157Z,20.47
2019-03-27T02:59:35.376Z,23.53
2019-03-27T03:02:02.591Z,19.73
2019-03-27T03:04:29.835Z,21.33
2019-03-27T03:06:57.096Z,18.60
2019-03-27T03:09:24.312Z,26.63
2019-03-27T03:11:51.990Z,18.37
2019-03-27T03:14:19.535Z,20.37
2019-03-27T03:16:47.203Z,19.63
2019-03-27T03:19:14.421Z,19.13
2019-03-27T03:21:41.737Z,23.60
2019-03-27T03:24:09.254Z,24.30
2019-03-27T03:26:37.429Z,21.13
2019-03-27T03:29:05.050Z,24.57
2019-03-27T03:31:32.424Z,21.10
2019-03-27T03:34:00.012Z,24.33
2019-03-27T03:36:27.571Z,26.50
2019-03-27T03:38:54.867Z,17.47
2019-03-27T03:41:22.130Z,21.50
2019-03-27T03:43:49.387Z,20.93
2019-03-27T03:46:16.880Z,22.70
2019-03-27T03:48:44.130Z,18.63
2019-03-27T03:51:11.379Z,21.20
2019-03-27T03:53:38.629Z,15.50
2019-03-27T03:56:06.919Z,22.20
2019-03-27T03:58:36.099Z,21.47
2019-03-27T04:01:03.411Z,18.50
2019-03-27T04:03:32.191Z,19.33
2019-03-27T04:05:59.444Z,20.63
2019-03-27T04:08:26.954Z,22.47
2019-03-27T04:10:54.194Z,18.97
2019-03-27T04:13:21.421Z,16.57
2019-03-27T04:15:48.753Z,18.60
2019-03-27T04:18:16.054Z,21.07
2019-03-27T04:20:43.518Z,18.10
2019-03-27T04:23:10.775Z,27.37
2019-03-27T04:26:07.051Z,19.40
2019-03-27T04:28:06.963Z,20.33
2019-03-27T04:30:34.176Z,21.30
2019-03-27T04:33:01.418Z,20.13
2019-03-27T04:35:28.667Z,24.20
2019-03-27T04:37:56.225Z,24.93
2019-03-27T04:40:23.804Z,17.47
2019-03-27T04:42:51.107Z,17.63
2019-03-27T04:45:18.592Z,22.37
2019-03-27T04:47:45.833Z,18.13
2019-03-27T04:50:13.162Z,21.33
2019-03-27T04:52:40.413Z,23.43
2019-03-27T04:55:07.722Z,18.50
2019-03-27T04:57:35.249Z,20.73
2019-03-27T05:00:03.466Z,21.50
2019-03-27T05:02:30.706Z,18.47
2019-03-27T05:04:58.550Z,18.67
2019-03-27T05:07:25.777Z,19.60
2019-03-27T05:09:53.358Z,21.73
2019-03-27T05:12:20.915Z,21.00
2019-03-27T05:14:48.477Z,21.33
2019-03-27T05:17:15.694Z,23.40
2019-03-27T05:19:43.298Z,19.10
2019-03-27T05:22:10.505Z,22.17
2019-03-27T05:24:37.758Z,19.40
2019-03-27T05:27:04.992Z,20.17
2019-03-27T05:29:32.608Z,22.20
2019-03-27T05:32:00.153Z,27.63
2019-03-27T05:34:27.387Z,23.57
2019-03-27T05:36:54.610Z,27.73
2019-03-27T05:39:21.856Z,22.03
2019-03-27T05:41:49.105Z,27.90
2019-03-27T05:44:16.316Z,18.40
2019-03-27T05:46:43.857Z,20.37
2019-03-27T05:49:11.091Z,19.33
2019-03-27T05:51:38.366Z,22.53
2019-03-27T05:54:05.605Z,25.67
2019-03-27T05:56:33.183Z,23.07
2019-03-27T05:59:00.752Z,24.50
2019-03-27T06:01:28.302Z,22.60
2019-03-27T06:03:55.963Z,22.53
2019-03-27T06:06:23.226Z,24.63
2019-03-27T06:08:50.767Z,26.33
2019-03-27T06:11:18.333Z,23.70
2019-03-27T06:13:45.561Z,24.17
2019-03-27T06:16:12.802Z,22.37
2019-03-27T06:18:40.015Z,22.03
2019-03-27T06:21:07.247Z,23.67
2019-03-27T06:23:34.788Z,29.07
2019-03-27T06:26:02.028Z,21.23
2019-03-27T06:28:29.279Z,24.10
2019-03-27T06:30:56.506Z,25.07
2019-03-27T06:33:23.762Z,23.47
2019-03-27T06:35:50.976Z,20.47
2019-03-27T06:38:18.211Z,26.17
2019-03-27T06:40:45.446Z,27.87
2019-03-27T06:43:12.700Z,19.93
2019-03-27T06:45:39.911Z,20.30
2019-03-27T06:48:08.691Z,22.17
2019-03-27T06:50:35.920Z,19.27
2019-03-27T06:53:03.159Z,24.30
2019-03-27T06:55:30.713Z,22.50
2019-03-27T06:57:57.982Z,26.23
2019-03-27T07:00:27.047Z,23.70
2019-03-27T07:02:54.615Z,23.37
2019-03-27T07:05:22.155Z,21.60
2019-03-27T07:07:49.394Z,21.53
2019-03-27T07:10:17.064Z,26.50
2019-03-27T07:12:44.306Z,25.03
2019-03-27T07:15:11.689Z,26.10
2019-03-27T07:17:38.946Z,28.03
2019-03-27T07:20:07.541Z,28.30
2019-03-27T07:22:34.806Z,26.87
2019-03-27T07:25:02.088Z,31.50
2019-03-27T07:27:29.329Z,29.20
2019-03-27T07:29:56.822Z,31.07
2019-03-27T07:32:24.385Z,25.30
2019-03-27T07:34:51.620Z,26.73
2019-03-27T07:37:18.938Z,32.50
2019-03-27T07:39:46.211Z,26.47
2019-03-27T07:42:14.715Z,26.57
2019-03-27T07:44:41.941Z,25.30
2019-03-27T07:47:09.177Z,30.67
2019-03-27T07:49:36.422Z,27.60
2019-03-27T07:52:03.714Z,29.77
2019-03-27T07:54:30.935Z,36.40
2019-03-27T07:56:58.216Z,34.80
2019-03-27T07:59:25.433Z,34.20
2019-03-27T08:01:52.671Z,39.13
2019-03-27T08:04:19.882Z,39.00
2019-03-27T08:06:47.124Z,40.57
2019-03-27T08:09:14.383Z,38.37
2019-03-27T08:11:41.695Z,39.03
2019-03-27T08:14:09.096Z,42.07
2019-03-27T08:16:36.348Z,39.83
2019-03-27T08:19:07.704Z,42.63
2019-03-27T08:21:32.605Z,47.87
2019-03-27T08:23:59.842Z,35.50
2019-03-27T08:26:27.062Z,35.67
2019-03-27T08:28:54.282Z,35.77
2019-03-27T08:31:21.503Z,39.90
2019-03-27T08:33:48.761Z,48.40
2019-03-27T08:36:15.982Z,44.27
2019-03-27T08:38:43.543Z,46.10
2019-03-27T08:41:10.792Z,49.03
2019-03-27T08:43:38.010Z,41.47
2019-03-27T08:46:05.254Z,50.60
2019-03-27T08:48:32.474Z,50.40
2019-03-27T08:50:59.730Z,45.77
2019-03-27T08:53:26.983Z,52.90
2019-03-27T08:55:54.204Z,49.37
2019-03-27T08:58:21.418Z,45.83
2019-03-27T09:00:49.540Z,47.63
2019-03-27T09:03:16.833Z,49.53
2019-03-27T09:05:44.064Z,43.57
2019-03-27T09:08:11.390Z,51.50
2019-03-27T09:10:38.934Z,49.20
2019-03-27T09:13:06.499Z,49.20
2019-03-27T09:15:34.055Z,65.63
2019-03-27T09:18:01.369Z,61.93
2019-03-27T09:20:28.629Z,60.80
2019-03-27T09:22:55.870Z,65.07
2019-03-27T09:25:23.374Z,54.00
2019-03-27T09:27:50.973Z,54.37
2019-03-27T09:30:18.899Z,57.97
2019-03-27T09:32:46.138Z,52.10
2019-03-27T09:35:13.477Z,57.27
2019-03-27T09:37:40.950Z,63.43
2019-03-27T09:40:08.464Z,61.10
2019-03-27T09:42:35.703Z,75.33
2019-03-27T09:45:03.014Z,64.53
2019-03-27T09:47:30.591Z,65.87
2019-03-27T09:49:57.866Z,60.47
2019-03-27T09:52:25.076Z,62.17
2019-03-27T09:54:52.329Z,69.63
2019-03-27T09:57:19.542Z,62.17
2019-03-27T09:59:46.777Z,69.77
2019-03-27T10:02:14.005Z,74.50
2019-03-27T10:04:41.642Z,64.80
2019-03-27T10:07:09.197Z,68.17
2019-03-27T10:09:36.418Z,78.17
2019-03-27T10:12:03.710Z,67.10
2019-03-27T10:14:31.366Z,61.13
2019-03-27T10:16:58.621Z,59.30
2019-03-27T10:19:25.862Z,62.93
2019-03-27T10:21:53.321Z,64.23
2019-03-27T10:24:20.580Z,63.63
2019-03-27T10:26:48.127Z,58.47
2019-03-27T10:29:15.694Z,66.57
2019-03-27T10:31:42.915Z,65.47
2019-03-27T10:34:10.398Z,63.10
2019-03-27T10:36:37.640Z,61.03
2019-03-27T10:39:05.961Z,59.07
2019-03-27T10:41:33.490Z,57.10
2019-03-27T10:44:00.698Z,59.53
2019-03-27T10:46:28.196Z,53.13
2019-03-27T10:48:55.782Z,53.23
2019-03-27T10:51:23.061Z,55.70
2019-03-27T10:53:50.298Z,59.00
2019-03-27T10:56:17.534Z,50.60
2019-03-27T10:58:45.058Z,56.73
2019-03-27T11:01:12.330Z,50.37
2019-03-27T11:03:39.539Z,54.27
2019-03-27T11:06:06.752Z,54.47
2019-03-27T11:08:34.274Z,50.07
2019-03-27T11:11:01.831Z,52.87
2019-03-27T11:13:29.568Z,54.50
2019-03-27T11:15:56.805Z,52.43
2019-03-27T11:18:24.103Z,45.77
2019-03-27T11:20:51.675Z,44.53
2019-03-27T11:23:18.899Z,48.97
2019-03-27T11:25:46.368Z,46.10
2019-03-27T11:28:13.611Z,55.17
2019-03-27T11:30:41.175Z,54.27
2019-03-27T11:33:08.446Z,53.73
2019-03-27T11:35:35.982Z,52.40
2019-03-27T11:38:03.235Z,56.70
2019-03-27T11:40:30.461Z,46.27
2019-03-27T11:42:57.729Z,52.43
2019-03-27T11:45:25.291Z,53.77
2019-03-27T11:47:52.538Z,50.63
2019-03-27T11:50:19.833Z,52.33
2019-03-27T11:52:47.078Z,50.33
2019-03-27T11:55:14.603Z,51.73
2019-03-27T11:57:41.821Z,43.67
2019-03-27T12:00:09.563Z,50.43
2019-03-27T12:02:36.808Z,43.17
2019-03-27T12:05:05.221Z,47.47
2019-03-27T12:07:32.830Z,44.87
2019-03-27T12:10:00.092Z,43.87
2019-03-27T12:12:27.309Z,50.17
2019-03-27T12:14:54.878Z,41.50
2019-03-27T12:17:22.134Z,43.60
2019-03-27T12:19:49.352Z,39.17
2019-03-27T12:22:16.599Z,41.03
2019-03-27T12:24:43.830Z,43.87
2019-03-27T12:27:11.042Z,41.63
2019-03-27T12:29:38.282Z,36.87
2019-03-27T12:32:05.546Z,39.83
2019-03-27T12:34:33.102Z,40.37
2019-03-27T12:37:00.650Z,35.53
2019-03-27T12:39:27.897Z,39.43
2019-03-27T12:41:55.117Z,39.80
2019-03-27T12:44:22.367Z,29.17
2019-03-27T12:46:51.825Z,35.37
2019-03-27T12:49:18.798Z,35.63
2019-03-27T12:51:46.029Z,34.33
2019-03-27T12:54:13.558Z,32.37
2019-03-27T12:56:41.117Z,37.80
2019-03-27T12:59:08.337Z,33.23
2019-03-27T13:01:35.919Z,32.30
2019-03-27T13:04:03.154Z,36.90
2019-03-27T13:06:30.375Z,34.30
2019-03-27T13:08:57.604Z,31.00
2019-03-27T13:11:24.826Z,33.53
2019-03-27T13:13:52.427Z,28.70
2019-03-27T13:16:19.692Z,26.47
2019-03-27T13:18:46.914Z,28.10
2019-03-27T13:21:25.734Z,30.87
2019-03-27T13:23:43.433Z,33.33
2019-03-27T13:26:10.658Z,26.63
2019-03-27T13:28:48.125Z,26.77
2019-03-27T13:31:07.224Z,26.27
2019-03-27T13:33:34.445Z,26.73
2019-03-27T13:36:01.944Z,23.60
2019-03-27T13:38:29.179Z,23.40
2019-03-27T13:40:56.435Z,23.17
2019-03-27T13:43:23.930Z,22.97
2019-03-27T13:45:51.466Z,20.10
2019-03-27T13:48:18.707Z,18.33
2019-03-27T13:50:45.954Z,20.87
2019-03-27T13:53:13.537Z,20.23
2019-03-27T13:55:40.744Z,27.87
2019-03-27T13:58:08.438Z,18.70
2019-03-27T14:00:35.989Z,19.77
2019-03-27T14:03:03.230Z,18.50
2019-03-27T14:05:30.705Z,19.17
2019-03-27T14:07:58.263Z,16.40
2019-03-27T14:10:25.480Z,20.03
2019-03-27T14:12:53.181Z,17.50
2019-03-27T14:15:20.878Z,19.83
2019-03-27T14:17:48.128Z,17.07
2019-03-27T14:20:15.658Z,14.77
2019-03-27T14:22:42.900Z,14.77
2019-03-27T14:25:10.504Z,13.83
2019-03-27T14:27:38.024Z,16.00
2019-03-27T14:30:06.794Z,19.67
2019-03-27T14:32:34.262Z,16.13
2019-03-27T14:35:01.918Z,13.77
2019-03-27T14:37:29.483Z,15.70
2019-03-27T14:39:57.053Z,12.83
2019-03-27T14:42:24.353Z,19.83
2019-03-27T14:44:51.843Z,16.83
2019-03-27T14:47:19.398Z,14.37
2019-03-27T14:49:46.963Z,17.77
2019-03-27T14:52:14.519Z,18.40
2019-03-27T14:54:42.084Z,13.73
2019-03-27T14:57:09.356Z,12.60
2019-03-27T14:59:36.590Z,11.23
2019-03-27T15:02:03.890Z,15.33
2019-03-27T15:04:31.128Z,11.13
2019-03-27T15:06:58.645Z,17.70
2019-03-27T15:09:25.875Z,19.17
2019-03-27T15:11:53.106Z,14.33
2019-03-27T15:14:20.366Z,12.97
2019-03-27T15:16:47.856Z,14.90
2019-03-27T15:19:15.078Z,15.17
2019-03-27T15:21:42.307Z,17.53
2019-03-27T15:24:09.815Z,15.73
2019-03-27T15:26:37.071Z,15.90
2019-03-27T15:29:04.284Z,18.53
2019-03-27T15:31:31.874Z,14.33
2019-03-27T15:33:59.128Z,13.23
2019-03-27T15:36:26.409Z,14.27
2019-03-27T15:38:53.631Z,18.87
2019-03-27T15:41:20.850Z,14.67
2019-03-27T15:43:48.334Z,13.60
2019-03-27T15:46:15.990Z,13.77
2019-03-27T15:48:43.225Z,15.10
2019-03-27T15:51:10.443Z,15.00
2019-03-27T15:53:37.958Z,15.90
2019-03-27T15:56:05.187Z,11.87
2019-03-27T15:58:32.661Z,13.30
2019-03-27T16:00:59.894Z,15.23
2019-03-27T16:03:27.125Z,12.90
2019-03-27T16:05:54.374Z,14.37
2019-03-27T16:08:21.615Z,12.63
2019-03-27T16:10:49.130Z,13.63
2019-03-27T16:13:16.379Z,15.53
2019-03-27T16:15:43.598Z,11.63
2019-03-27T16:18:11.090Z,11.47
2019-03-27T16:20:38.402Z,15.53
2019-03-27T16:23:05.625Z,12.00
2019-03-27T16:25:33.163Z,12.90
2019-03-27T16:28:00.698Z,11.67
2019-03-27T16:30:28.257Z,11.63
2019-03-27T16:32:57.759Z,14.93
2019-03-27T16:35:24.989Z,13.87
2019-03-27T16:37:52.471Z,14.90
2019-03-27T16:40:21.569Z,14.17
2019-03-27T16:42:49.135Z,13.03
2019-03-27T16:45:16.449Z,15.83
2019-03-27T16:47:43.675Z,13.93
2019-03-27T16:50:11.491Z,11.70
2019-03-27T16:52:38.722Z,20.03
2019-03-27T16:55:07.734Z,13.70
2019-03-27T16:57:34.974Z,15.80
2019-03-27T17:00:02.201Z,13.83
2019-03-27T17:02:29.431Z,12.20
2019-03-27T17:04:56.947Z,16.63
2019-03-27T17:07:24.157Z,18.57
2019-03-27T17:09:51.369Z,15.60
2019-03-27T17:12:18.613Z,20.60
2019-03-27T17:14:45.847Z,13.73
2019-03-27T17:17:13.073Z,18.63
2019-03-27T17:19:40.282Z,14.23
2019-03-27T17:22:18.987Z,21.97
2019-03-27T17:24:36.492Z,14.57
2019-03-27T17:27:04.050Z,16.13
2019-03-27T17:29:31.279Z,12.27
2019-03-27T17:31:58.550Z,13.17
2019-03-27T17:34:25.799Z,15.17
2019-03-27T17:36:53.363Z,14.67
2019-03-27T17:39:20.600Z,14.90
2019-03-27T17:41:48.070Z,14.37
2019-03-27T17:44:15.302Z,15.93
2019-03-27T17:46:42.522Z,18.20
2019-03-27T17:49:09.758Z,15.67
2019-03-27T17:51:37.279Z,14.33
2019-03-27T17:54:04.507Z,17.17
2019-03-27T17:56:31.741Z,14.57
2019-03-27T17:58:58.954Z,16.80
2019-03-27T18:01:26.610Z,18.03
2019-03-27T18:03:53.866Z,25.13
2019-03-27T18:06:21.147Z,17.80
2019-03-27T18:08:48.654Z,14.27
2019-03-27T18:11:16.222Z,16.23
2019-03-27T18:13:43.450Z,13.70
2019-03-27T18:16:10.665Z,20.70
2019-03-27T18:18:37.874Z,17.70
2019-03-27T18:21:05.170Z,16.10
2019-03-27T18:23:45.095Z,17.67
2019-03-27T18:26:01.452Z,15.27
2019-03-27T18:28:28.909Z,16.07
2019-03-27T18:30:56.167Z,16.07
2019-03-27T18:33:23.374Z,16.57
2019-03-27T18:35:50.886Z,20.80
2019-03-27T18:38:18.189Z,22.60
2019-03-27T18:40:45.406Z,17.27
2019-03-27T18:43:12.734Z,20.23
2019-03-27T18:45:41.897Z,16.93
2019-03-27T18:48:09.121Z,15.23
2019-03-27T18:50:36.634Z,19.23
2019-03-27T18:53:03.949Z,17.27
2019-03-27T18:55:31.247Z,19.57
2019-03-27T18:58:00.373Z,20.33
2019-03-27T19:00:27.796Z,21.17
2019-03-27T19:02:55.130Z,16.73
2019-03-27T19:05:22.398Z,17.83
2019-03-27T19:07:49.618Z,19.47
2019-03-27T19:10:16.864Z,20.67
2019-03-27T19:12:44.362Z,16.80
2019-03-27T19:15:11.876Z,17.03
2019-03-27T19:17:39.113Z,17.00
2019-03-27T19:20:06.690Z,15.17
2019-03-27T19:22:33.915Z,16.57
2019-03-27T19:25:01.477Z,16.77
2019-03-27T19:27:29.003Z,15.97
2019-03-27T19:29:56.224Z,20.17
2019-03-27T19:32:23.526Z,13.33
2019-03-27T19:34:51.208Z,14.40
2019-03-27T19:37:19.019Z,16.03
2019-03-27T19:39:46.322Z,19.03
2019-03-27T19:42:13.934Z,19.33
2019-03-27T19:44:41.489Z,20.97
2019-03-27T19:47:09.152Z,15.60
2019-03-27T19:49:36.711Z,16.53
2019-03-27T19:52:03.951Z,17.17
2019-03-27T19:54:31.182Z,16.60
2019-03-27T19:56:58.670Z,26.60
2019-03-27T19:59:25.953Z,28.10
2019-03-27T20:01:53.514Z,33.20
2019-03-27T20:04:21.044Z,25.80
2019-03-27T20:06:48.266Z,25.67
2019-03-27T20:09:15.481Z,24.43
2019-03-27T20:11:42.846Z,20.23
2019-03-27T20:14:10.150Z,51.63
2019-03-27T20:16:37.369Z,32.70
2019-03-27T20:19:04.602Z,19.50
2019-03-27T20:21:31.840Z,25.57
2019-03-27T20:23:59.078Z,25.30
2019-03-27T20:26:26.338Z,20.33
2019-03-27T20:28:53.858Z,23.60
2019-03-27T20:31:21.421Z,30.10
2019-03-27T20:33:48.653Z,23.37
2019-03-27T20:36:16.147Z,21.90
2019-03-27T20:38:43.491Z,26.07
2019-03-27T20:41:10.894Z,21.23
2019-03-27T20:43:38.156Z,22.50
2019-03-27T20:46:05.514Z,18.60
2019-03-27T20:48:32.811Z,23.83
2019-03-27T20:51:00.299Z,22.77
2019-03-27T20:53:27.648Z,19.43
2019-03-27T20:55:55.040Z,24.07
2019-03-27T20:58:22.465Z,23.80
2019-03-27T21:00:49.938Z,23.63
2019-03-27T21:03:17.199Z,24.60
2019-03-27T21:05:44.544Z,29.93
2019-03-27T21:08:12.035Z,28.13
2019-03-27T21:10:39.763Z,27.73
2019-03-27T21:13:07.230Z,22.07
2019-03-27T21:15:34.553Z,24.20
2019-03-27T21:18:01.919Z,25.63
2019-03-27T21:20:29.599Z,29.53
2019-03-27T21:22:57.409Z,27.33
2019-03-27T21:25:24.707Z,24.67
2019-03-27T21:27:52.475Z,23.87
2019-03-27T21:30:19.843Z,26.30
2019-03-27T21:32:47.267Z,23.00
2019-03-27T21:35:14.566Z,29.93
2019-03-27T21:37:42.261Z,25.07
2019-03-27T21:40:10.042Z,25.77
2019-03-27T21:42:37.399Z,25.60
2019-03-27T21:45:06.204Z,29.63
2019-03-27T21:47:33.786Z,22.20
2019-03-27T21:50:01.383Z,24.23
2019-03-27T21:52:28.606Z,24.40
2019-03-27T21:54:55.847Z,26.13
2019-03-27T21:57:23.078Z,25.07
2019-03-27T21:59:50.452Z,25.30
2019-03-27T22:02:18.012Z,25.50
2019-03-27T22:04:45.651Z,24.83
2019-03-27T22:07:12.942Z,24.00
2019-03-27T22:09:40.312Z,24.10
2019-03-27T22:12:07.738Z,28.23
2019-03-27T22:14:35.309Z,27.87
2019-03-27T22:17:03.394Z,28.23
2019-03-27T22:19:31.017Z,24.83
2019-03-27T22:21:58.393Z,27.97
2019-03-27T22:24:25.857Z,26.23
2019-03-27T22:26:53.200Z,30.93
2019-03-27T22:29:21.031Z,32.23
2019-03-27T22:31:48.758Z,25.13
2019-03-27T22:34:16.033Z,29.57
2019-03-27T22:36:43.468Z,32.10
2019-03-27T22:39:10.750Z,29.20
2019-03-27T22:41:38.070Z,28.83
2019-03-27T22:44:05.875Z,27.30
2019-03-27T22:46:33.087Z,25.73
2019-03-27T22:49:00.369Z,24.23
2019-03-27T22:51:28.059Z,28.87
2019-03-27T22:53:55.610Z,26.97
2019-03-27T22:56:23.070Z,25.47
2019-03-27T22:58:50.301Z,26.03
2019-03-27T23:01:17.541Z,22.17
2019-03-27T23:03:45.202Z,23.67
2019-03-27T23:06:13.556Z,26.80
2019-03-27T23:08:40.829Z,24.13
2019-03-27T23:11:08.069Z,21.10
2019-03-27T23:13:35.574Z,22.83
2019-03-27T23:16:02.829Z,24.60
2019-03-27T23:18:30.065Z,21.73
2019-03-27T23:20:57.292Z,23.50
2019-03-27T23:23:24.786Z,20.93
2019-03-27T23:26:02.478Z,27.30
2019-03-27T23:28:21.234Z,23.90
2019-03-27T23:30:48.800Z,22.90
2019-03-27T23:33:16.497Z,25.07
2019-03-27T23:35:44.323Z,22.77
2019-03-27T23:38:11.867Z,29.10
2019-03-27T23:40:39.110Z,25.73
2019-03-27T23:43:06.891Z,21.10
2019-03-27T23:45:34.454Z,23.47
2019-03-27T23:48:02.424Z,24.33
2019-03-27T23:50:29.671Z,28.50
2019-03-27T23:52:57.236Z,26.03
2019-03-27T23:55:24.555Z,21.17
2019-03-27T23:57:51.768Z,23.50
